Indian Springs, Nevada Weather observations

Data are for observation ending at time listed.
 Day   Time    Ave.   Ave.  Ave.  Vector   Max.   Stn.    Total    Solar   Ave.  
  of    of     Air    Rel.  Wind   Wind    Wind   Baro.  Precip.   Rad.    Soil  
Year   Day     Temp.  Hum.  Speed  Dir.    Gust   Pres.                    Temp. 
2014   (PST)    F      %     mph   deg.    mph     mb.     in.     W/m2     F   
------------------------------------------------------------------------------
 325   17:20   54.3    32    0.0   174      0.5   903.6    0.00       0    58.6
 325   17:30   54.0    32    0.5   188      1.4   903.5    0.00       0    58.4
 325   17:40   54.3    32    2.2   234      5.7   903.4    0.00       0    58.2
 325   17:50   55.1    30    2.4   234      5.1   903.6    0.00       0    58.0
 325   18:00   54.8    30    1.8   234      3.8   903.8    0.00       0    57.8
 325   18:10   53.5    31    1.4   242      2.7   903.7    0.00       0    57.7
 325   18:20   52.8    32    1.5   274      2.8   903.8    0.00       0    57.5
 325   18:30   52.8    32    1.5   238      3.0   903.8    0.00       0    57.3
 325   18:40   51.7    33    0.8   273      3.6   903.8    0.00       0    57.1
 325   18:50   50.6    34    0.1   211      0.9   903.9    0.00       0    57.0
 325   19:00   50.9    34    1.4   241      3.1   903.9    0.00       0    56.8
 325   19:10   52.1    33    1.7   257      3.1   904.1    0.00       0    56.6
 325   19:20   53.2    32    2.1   245      3.5   904.1    0.00       0    56.4
 325   19:30   52.8    33    0.9   250      2.9   904.2    0.00       0    56.3
 325   19:40   50.0    36    0.2   162      0.9   904.3    0.00       0    56.1
 325   19:50   48.7    38    0.3   137      1.0   904.3    0.00       0    56.0
 325   20:00   48.5    38    0.1   284      1.7   904.2    0.00       0    55.8
 325   20:10   48.5    39    0.6   288      1.7   904.3    0.00       0    55.7
 325   20:20   48.2    38    0.1   194      0.9   904.3    0.00       0    55.5
 325   20:30   48.4    39    0.8   158      2.3   904.4    0.00       0    55.4
 325   20:40   48.3    38    0.7   115      1.6   904.5    0.00       0    55.2
 325   20:50   47.5    40    0.4   129      1.8   904.5    0.00       0    55.1
 325   21:00   47.0    40    0.0     0      0.0   904.6    0.00       0    54.9
 325   21:10   46.7    41    0.2   206      1.2   904.7    0.00       0    54.8
 325   21:20   47.0    40    0.5   236      1.8   904.6    0.00       0    54.6
 325   21:30   46.4    39    1.6   241      3.2   904.7    0.00       0    54.5
 325   21:40   45.4    40    1.8   232      3.1   904.6    0.00       0    54.3
 325   21:50   44.9    42    2.6   231      4.5   904.7    0.00       0    54.2
 325   22:00   46.0    41    1.2   228      3.5   904.8    0.00       0    54.0
 325   22:10   44.8    43    0.2    49      0.9   904.8    0.00       0    53.9
 325   22:20   43.9    45    0.5    78      1.4   904.7    0.00       0    53.8
 325   22:30   43.2    46    0.0   164      0.7   904.7    0.00       0    53.7
 325   22:40   42.9    46    0.1   168      0.9   904.7    0.00       0    53.6
 325   22:50   42.7    46    0.2   166      1.2   904.7    0.00       0    53.4
 325   23:00   42.4    47    0.1   150      0.7   904.7    0.00       0    53.3
 325   23:10   42.1    48    0.0     0      0.0   904.8    0.00       0    53.2
 325   23:20   42.5    46    0.5   217      1.4   904.7    0.00       0    53.1
 325   23:30   42.0    47    0.0     0      0.0   904.7    0.00       0    52.9
 325   23:40   41.3    49    0.0     0      0.0   904.5    0.00       0    52.8
 325   23:50   41.0    50    0.1    57      1.0   904.4    0.00       0    52.7
 326    0:00   40.9    51    0.1     3      0.9   904.5    0.00       0    52.6
 326    0:10   41.0    48    1.1   219      2.1   904.4    0.00       0    52.4
 326    0:20   40.9    48    0.3   222      1.1   904.5    0.00       0    52.3
 326    0:30   41.5    48    0.2   262      1.0   904.4    0.00       0    52.2
 326    0:40   41.3    46    0.9   235      2.1   904.5    0.00       0    52.1
 326    0:50   40.7    47    1.1   259      2.0   904.5    0.00       0    52.0
 326    1:00   40.5    48    1.0   220      2.5   904.6    0.00       0    51.8
 326    1:10   40.1    48    0.3   249      1.2   904.6    0.00       0    51.7
 326    1:20   40.0    48    1.3   233      2.7   904.6    0.00       0    51.6
 326    1:30   38.8    52    1.0    86      2.4   904.4    0.00       0    51.5
 326    1:40   38.6    54    0.1   153      0.7   904.5    0.00       0    51.4
 326    1:50   39.4    52    0.3   219      1.7   904.6    0.00       0    51.3
 326    2:00   38.8    53    0.4   155      1.5   904.5    0.00       0    51.2
 326    2:10   38.9    54    0.2   210      1.4   904.6    0.00       0    51.1
 326    2:20   40.1    50    1.3   235      2.1   904.5    0.00       0    51.0
 326    2:30   41.2    48    1.2   232      1.8   904.4    0.00       0    50.8
 326    2:40   41.6    46    1.5   236      2.6   904.3    0.00       0    50.7
 326    2:50   40.1    47    0.9   244      2.6   904.3    0.00       0    50.6
 326    3:00   39.1    51    0.9    79      3.6   904.3    0.00       0    50.6
 326    3:10   38.2    53    0.5   105      3.1   904.4    0.00       0    50.5
 326    3:20   38.9    51    0.7   242      2.0   904.4    0.00       0    50.4
 326    3:30   38.8    50    2.1   244      3.7   904.4    0.00       0    50.3
 326    3:40   39.0    50    1.6   233      2.4   904.5    0.00       0    50.2
 326    3:50   38.6    50    0.6   221      1.5   904.4    0.00       0    50.1
 326    4:00   38.6    51    0.2   212      0.9   904.4    0.00       0    50.0
 326    4:10   38.6    50    0.8   233      1.8   904.5    0.00       0    49.9
 326    4:20   38.1    51    2.2   235      3.0   904.4    0.00       0    49.9
 326    4:30   38.7    52    2.4   251      4.3   904.4    0.00       0    49.8
 326    4:40   39.5    51    1.1   291      3.0   904.4    0.00       0    49.7
 326    4:50   39.3    50    1.0   227      2.2   904.6    0.00       0    49.6
 326    5:00   38.5    52    0.5   221      2.2   904.5    0.00       0    49.5
 326    5:10   37.4    55    0.9    91      2.1   904.2    0.00       0    49.5
 326    5:20   35.6    56    0.9    83      1.9   904.1    0.00       0    49.4
 326    5:30   35.0    55    0.5   129      1.2   903.8    0.00       0    49.3
 326    5:40   35.2    55    0.1   184      0.9   903.8    0.00       0    49.2
 326    5:50   35.9    54    0.4   103      1.8   903.7    0.00       0    49.2
 326    6:00   35.4    56    0.2    93      1.3   903.6    0.00       0    49.1
 326    6:10   35.3    57    0.1   111      0.9   903.8    0.00       0    49.0
 326    6:20   36.2    55    1.2   229      2.3   904.0    0.00       0    48.9
 326    6:30   36.4    55    1.2   222      2.4   904.3    0.00       0    48.8
 326    6:40   37.5    54    1.6   222      2.9   904.4    0.00       6    48.7
 326    6:50   37.4    55    0.7   301      1.7   904.4    0.00       9    48.7
 326    7:00   37.4    55    0.3    18      1.2   904.4    0.00      15    48.6
 326    7:10   36.9    56    0.6   119      2.0   904.1    0.00      26    48.5
 326    7:20   37.4    56    0.3    27      2.2   903.8    0.00      51    48.4
 326    7:30   38.9    53    0.4    53      1.3   903.7    0.00      69    48.4
 326    7:40   40.3    50    0.0    47      0.7   903.6    0.00      58    48.3
 326    7:50   41.2    47    1.3   311      2.8   903.8    0.00      55    48.2
 326    8:00   40.7    47    1.8   268      4.5   904.3    0.00     201    48.2
 326    8:10   41.6    47    1.9   241      5.3   904.7    0.00     286    48.1
 326    8:20   44.3    44    0.7   291      2.0   904.9    0.00     320    48.1
 326    8:30   47.1    41    2.0   239      4.4   905.1    0.00     339    48.1
 326    8:40   48.6    38    1.3    26      2.7   905.2    0.00     327    48.1
 326    8:50   48.3    38    1.7    29      3.5   905.4    0.00     238    48.1
 326    9:00   48.6    38    2.0    43      3.4   905.7    0.00     272    48.2
 326    9:10   49.7    37    1.8    38      3.3   905.6    0.00     280    48.4
 326    9:20   52.1    34    0.8    71      2.7   905.9    0.00     144    48.5
 326    9:30   53.2    33    1.3    25      2.7   906.1    0.00     241    48.7
 326    9:40   52.4    35    1.7   326      4.2   906.3    0.00     265    49.0
 326    9:50   53.1    35    2.1   312      3.9   906.6    0.00     214    49.3
 326   10:00   53.8    34    1.5   338      3.8   906.4    0.00     139    49.6
 326   10:10   54.4    32    1.5   347      3.5   906.3    0.00      92    49.9
 326   10:20   55.0    32    0.8   340      2.4   906.1    0.00      99    50.3
 326   10:30   55.8    31    1.1   282      2.0   906.0    0.00     141    50.6
 326   10:40   56.6    31    1.4   217      3.0   905.7    0.00     165    50.9
 326   10:50   57.7    30    1.0   175      2.6   905.2    0.00     137    51.1
 326   11:00   58.9    29    1.2   151      3.1   905.0    0.00     164    51.4
 326   11:10   60.1    28    0.9   357      2.6   905.1    0.00     313    51.6
 326   11:20   60.4    27    1.5    14      3.7   904.7    0.00     413    51.8
 326   11:30   60.2    27    2.8    66      6.4   904.1    0.00     535    52.1
 326   11:40   60.2    27    2.0    69      4.3   904.1    0.00     411    52.3
 326   11:50   61.1    26    2.4    86      7.3   904.0    0.00     645    52.5
 326   12:00   61.3    26    3.0    84      7.7   904.1    0.00     624    52.8
 326   12:10   62.1    26    2.5    76      5.6   904.1    0.00     629    53.0
 326   12:20   61.7    26    3.3    72      5.9   904.2    0.00     609    53.3
 326   12:30   62.3    25    2.4    56      5.3   904.2    0.00     595    53.6
 326   12:40   62.6    25    2.5    90      5.7   904.1    0.00     593    53.9
 326   12:50   63.3    24    1.6   117      3.7   903.8    0.00     583    54.3
 326   13:00   63.3    24    2.5   125      6.4   903.6    0.00     575    54.7
 326   13:10   63.8    23    1.9    78      5.8   903.6    0.00     327    55.1
 326   13:20   63.2    23    2.8    61      5.8   903.4    0.00     381    55.5
 326   13:30   63.5    23    2.7    61      6.2   903.3    0.00     514    55.9
 326   13:40   63.8    23    2.2    54      6.1   903.0    0.00     464    56.4
 326   13:50   64.8    22    2.2    50      4.7   902.9    0.00     479    56.7
 326   14:00   64.8    22    1.3   242      4.7   902.7    0.00     458    57.1
 326   14:10   64.8    22    2.2    80      5.2   902.6    0.00     432    57.4
 326   14:20   65.4    22    1.2    19      4.7   902.6    0.00     407    57.7
 326   14:30   65.4    21    1.9    55      5.2   902.5    0.00     375    58.0
 326   14:40   65.4    22    1.9    54      4.6   902.7    0.00     346    58.3
 326   14:50   65.1    22    2.3    71      5.4   902.7    0.00     317    58.6
 326   15:00   64.5    22    3.4    88      7.9   902.3    0.00     288    58.8
 326   15:10   64.4    22    2.6    66      4.6   902.3    0.00     253    59.0
 326   15:20   64.7    22    3.3    93      6.5   902.3    0.00     224    59.2
 326   15:30   63.7    23    3.8    76      6.7   902.1    0.00     191    59.3
 326   15:40   63.2    23    3.0    82      6.4   902.0    0.00     159    59.5
 326   15:50   62.6    24    2.7    84      5.1   902.0    0.00     101    59.5
 326   16:00   62.3    24    1.6   107      5.5   901.5    0.00      26    59.6
 326   16:10   62.0    24    0.5   140      2.0   901.3    0.00      22    59.5
 326   16:20   61.2    25    1.0    97      2.7   901.2    0.00      16    59.5
 326   16:30   60.1    26    0.3   106      1.6   901.3    0.00       7    59.4
 326   16:40   58.7    28    0.3   126      2.4   901.0    0.00       4    59.4
 326   16:50   57.7    29    0.0   142      0.7   900.8    0.00       0    59.3
 326   17:00   56.6    30    0.4    95      2.2   900.5    0.00       0    59.1
 326   17:10   56.4    31    0.5    89      1.4   900.1    0.00       0    58.9

Return to Indian Springs, Nevada graphs page.


Western Regional Climate Center,wrcc@dri.edu